createdAt,value
2019-02-04T00:01:35.456Z,2.67
2019-02-04T00:04:25.427Z,2.60
2019-02-04T00:07:18.194Z,2.20
2019-02-04T00:10:10.263Z,2.12
2019-02-04T00:13:00.898Z,2.27
2019-02-04T00:15:50.533Z,2.65
2019-02-04T00:18:39.866Z,4.30
2019-02-04T00:21:29.856Z,2.40
2019-02-04T00:24:19.493Z,2.02
2019-02-04T00:27:09.342Z,2.25
2019-02-04T00:29:58.776Z,2.37
2019-02-04T00:32:49.115Z,3.10
2019-02-04T00:35:39.276Z,2.72
2019-02-04T00:38:29.176Z,2.87
2019-02-04T00:41:19.039Z,3.75
2019-02-04T00:44:09.452Z,2.37
2019-02-04T00:46:59.623Z,3.30
2019-02-04T00:49:49.713Z,3.37
2019-02-04T00:52:39.635Z,2.47
2019-02-04T00:55:29.706Z,2.50
2019-02-04T00:58:19.343Z,3.00
2019-02-04T01:01:09.263Z,3.25
2019-02-04T01:03:59.365Z,2.42
2019-02-04T01:06:49.215Z,2.37
2019-02-04T01:09:38.808Z,3.33
2019-02-04T01:12:28.473Z,3.25
2019-02-04T01:15:18.277Z,3.75
2019-02-04T01:18:08.275Z,3.00
2019-02-04T01:21:01.416Z,2.85
2019-02-04T01:23:51.397Z,3.10
2019-02-04T01:26:41.384Z,2.80
2019-02-04T01:29:31.032Z,3.85
2019-02-04T01:32:21.470Z,3.90
2019-02-04T01:35:11.447Z,3.40
2019-02-04T01:38:01.003Z,4.22
2019-02-04T01:40:51.074Z,4.08
2019-02-04T01:43:40.896Z,3.40
2019-02-04T01:46:30.796Z,3.65
2019-02-04T01:49:20.973Z,3.40
2019-02-04T01:52:10.633Z,4.65
2019-02-04T01:55:00.512Z,3.02
2019-02-04T01:57:55.307Z,3.80
2019-02-04T02:00:45.193Z,3.33
2019-02-04T02:03:35.303Z,4.45
2019-02-04T02:06:25.022Z,4.22
2019-02-04T02:09:23.035Z,4.10
2019-02-04T02:12:13.043Z,3.25
2019-02-04T02:15:03.115Z,3.45
2019-02-04T02:17:52.927Z,3.52
2019-02-04T02:20:42.634Z,3.50
2019-02-04T02:23:33.595Z,3.80
2019-02-04T02:26:23.586Z,3.20
2019-02-04T02:29:13.135Z,3.72
2019-02-04T02:32:03.015Z,3.02
2019-02-04T02:34:53.632Z,4.58
2019-02-04T02:37:43.606Z,3.80
2019-02-04T02:40:35.487Z,3.02
2019-02-04T02:43:25.214Z,3.60
2019-02-04T02:46:14.998Z,3.70
2019-02-04T02:49:05.417Z,4.22
2019-02-04T02:51:55.379Z,4.37
2019-02-04T02:54:45.340Z,3.70
2019-02-04T02:57:35.626Z,3.72
2019-02-04T03:00:27.073Z,4.30
2019-02-04T03:03:16.962Z,3.75
2019-02-04T03:06:06.446Z,4.40
2019-02-04T03:08:56.033Z,4.33
2019-02-04T03:11:45.828Z,4.58
2019-02-04T03:14:35.784Z,4.65
2019-02-04T03:17:25.753Z,4.97
2019-02-04T03:20:16.306Z,5.22
2019-02-04T03:23:06.015Z,4.65
2019-02-04T03:25:56.193Z,5.83
2019-02-04T03:28:45.816Z,5.58
2019-02-04T03:31:39.033Z,6.10
2019-02-04T03:34:27.437Z,5.03
2019-02-04T03:37:17.403Z,7.20
2019-02-04T03:40:08.096Z,5.85
2019-02-04T03:42:58.418Z,8.53
2019-02-04T03:45:48.487Z,6.83
2019-02-04T03:48:38.553Z,6.97
2019-02-04T03:51:28.168Z,7.20
2019-02-04T03:54:17.925Z,8.43
2019-02-04T03:57:07.573Z,7.42
2019-02-04T03:59:57.627Z,8.78
2019-02-04T04:02:47.986Z,8.43
2019-02-04T04:05:38.143Z,8.35
2019-02-04T04:08:27.955Z,7.25
2019-02-04T04:11:18.053Z,7.20
2019-02-04T04:14:07.756Z,7.70
2019-02-04T04:16:58.200Z,8.60
2019-02-04T04:19:48.393Z,10.18
2019-02-04T04:22:38.485Z,8.73
2019-02-04T04:25:31.713Z,8.08
2019-02-04T04:28:21.640Z,8.28
2019-02-04T04:31:11.587Z,8.55
2019-02-04T04:34:01.525Z,8.88
2019-02-04T04:36:51.418Z,7.40
2019-02-04T04:39:42.115Z,8.80
2019-02-04T04:42:31.865Z,8.48
2019-02-04T04:45:23.846Z,8.10
2019-02-04T04:48:26.099Z,8.30
2019-02-04T04:51:06.455Z,8.30
2019-02-04T04:53:56.912Z,6.83
2019-02-04T04:56:47.022Z,7.28
2019-02-04T04:59:37.256Z,7.25
2019-02-04T05:02:27.022Z,8.10
2019-02-04T05:05:16.952Z,7.92
2019-02-04T05:08:06.944Z,7.67
2019-02-04T05:10:56.886Z,7.85
2019-02-04T05:13:46.425Z,7.85
2019-02-04T05:16:36.711Z,7.00
2019-02-04T05:19:26.982Z,8.10
2019-02-04T05:22:16.706Z,6.70
2019-02-04T05:25:06.833Z,7.33
2019-02-04T05:27:56.639Z,6.72
2019-02-04T05:30:46.648Z,7.00
2019-02-04T05:33:36.534Z,7.70
2019-02-04T05:36:26.212Z,6.62
2019-02-04T05:39:16.178Z,7.58
2019-02-04T05:42:06.163Z,6.80
2019-02-04T05:44:55.985Z,7.05
2019-02-04T05:47:45.694Z,6.80
2019-02-04T05:50:35.512Z,6.00
2019-02-04T05:53:25.364Z,7.10
2019-02-04T05:56:15.293Z,6.80
2019-02-04T05:59:08.075Z,7.50
2019-02-04T06:01:58.232Z,8.28
2019-02-04T06:04:48.066Z,6.50
2019-02-04T06:07:37.973Z,7.20
2019-02-04T06:10:27.833Z,6.12
2019-02-04T06:13:17.643Z,6.53
2019-02-04T06:16:07.744Z,6.75
2019-02-04T06:19:01.051Z,6.87
2019-02-04T06:21:49.026Z,6.25
2019-02-04T06:24:38.956Z,5.83
2019-02-04T06:27:28.675Z,6.58
2019-02-04T06:30:18.572Z,5.75
2019-02-04T06:33:08.089Z,5.95
2019-02-04T06:35:57.846Z,7.25
2019-02-04T06:38:47.445Z,7.80
2019-02-04T06:41:37.357Z,5.62
2019-02-04T06:44:26.998Z,7.28
2019-02-04T06:47:17.160Z,7.92
2019-02-04T06:50:08.406Z,7.45
2019-02-04T06:52:58.103Z,7.40
2019-02-04T06:55:48.257Z,7.00
2019-02-04T06:58:37.936Z,7.15
2019-02-04T07:01:27.885Z,7.58
2019-02-04T07:04:17.643Z,6.72
2019-02-04T07:07:08.392Z,6.70
2019-02-04T07:09:58.033Z,8.95
2019-02-04T07:12:48.083Z,7.70
2019-02-04T07:15:37.892Z,6.85
2019-02-04T07:18:27.812Z,7.78
2019-02-04T07:21:17.405Z,8.05
2019-02-04T07:24:07.335Z,6.35
2019-02-04T07:26:57.035Z,7.05
2019-02-04T07:29:47.167Z,6.58
2019-02-04T07:32:36.905Z,7.85
2019-02-04T07:35:27.093Z,6.83
2019-02-04T07:38:17.082Z,8.15
2019-02-04T07:41:07.132Z,6.90
2019-02-04T07:43:57.248Z,7.47
2019-02-04T07:46:47.125Z,6.92
2019-02-04T07:49:37.014Z,8.03
2019-02-04T07:52:26.972Z,6.35
2019-02-04T07:55:16.619Z,8.13
2019-02-04T07:58:06.335Z,8.20
2019-02-04T08:00:56.046Z,7.60
2019-02-04T08:03:45.992Z,8.25
2019-02-04T08:06:35.982Z,6.50
2019-02-04T08:09:25.944Z,7.87
2019-02-04T08:12:16.368Z,6.65
2019-02-04T08:15:09.001Z,7.45
2019-02-04T08:17:59.654Z,6.50
2019-02-04T08:20:49.633Z,6.83
2019-02-04T08:23:41.466Z,6.60
2019-02-04T08:26:31.702Z,7.20
2019-02-04T08:29:22.122Z,8.73
2019-02-04T08:32:11.933Z,7.15
2019-02-04T08:35:02.192Z,8.08
2019-02-04T08:37:54.154Z,7.90
2019-02-04T08:40:44.506Z,7.10
2019-02-04T08:43:34.605Z,7.50
2019-02-04T08:46:24.912Z,8.03
2019-02-04T08:49:15.101Z,7.83
2019-02-04T08:52:05.370Z,9.65
2019-02-04T08:54:55.714Z,8.25
2019-02-04T08:57:45.854Z,8.88
2019-02-04T09:00:36.494Z,8.83
2019-02-04T09:03:27.006Z,7.47
2019-02-04T09:06:18.033Z,10.53
2019-02-04T09:09:12.163Z,8.75
2019-02-04T09:12:03.895Z,8.63
2019-02-04T09:14:54.376Z,8.73
2019-02-04T09:17:45.496Z,9.30
2019-02-04T09:20:36.008Z,9.50
2019-02-04T09:23:27.848Z,10.23
2019-02-04T09:26:20.375Z,9.60
2019-02-04T09:29:10.825Z,9.83
2019-02-04T09:32:01.470Z,9.88
2019-02-04T09:34:52.577Z,10.53
2019-02-04T09:37:42.624Z,10.23
2019-02-04T09:40:38.297Z,10.28
2019-02-04T09:43:28.153Z,9.13
2019-02-04T09:46:19.119Z,9.78
2019-02-04T09:49:09.236Z,9.68
2019-02-04T09:51:59.185Z,10.38
2019-02-04T09:54:49.856Z,10.32
2019-02-04T09:57:40.204Z,9.50
2019-02-04T10:00:32.146Z,10.68
2019-02-04T10:03:23.061Z,10.23
2019-02-04T10:06:14.286Z,10.13
2019-02-04T10:09:05.898Z,9.60
2019-02-04T10:11:57.264Z,11.30
2019-02-04T10:14:47.359Z,10.55
2019-02-04T10:17:37.517Z,10.32
2019-02-04T10:20:34.127Z,9.95
2019-02-04T10:23:19.155Z,10.65
2019-02-04T10:26:09.183Z,10.60
2019-02-04T10:29:00.109Z,11.22
2019-02-04T10:31:50.330Z,10.63
2019-02-04T10:34:40.539Z,11.20
2019-02-04T10:37:31.014Z,8.85
2019-02-04T10:40:22.923Z,9.90
2019-02-04T10:43:13.398Z,9.65
2019-02-04T10:46:05.589Z,10.23
2019-02-04T10:48:55.884Z,9.13
2019-02-04T10:51:46.049Z,9.83
2019-02-04T10:54:37.891Z,8.35
2019-02-04T10:57:27.557Z,10.40
2019-02-04T11:00:19.250Z,9.40
2019-02-04T11:03:08.835Z,9.43
2019-02-04T11:05:58.573Z,9.93
2019-02-04T11:08:48.358Z,10.53
2019-02-04T11:11:37.846Z,8.95
2019-02-04T11:14:27.976Z,11.05
2019-02-04T11:17:17.713Z,10.65
2019-02-04T11:20:11.421Z,9.20
2019-02-04T11:23:01.696Z,9.70
2019-02-04T11:25:51.502Z,8.85
2019-02-04T11:28:41.316Z,9.35
2019-02-04T11:31:32.409Z,9.88
2019-02-04T11:34:22.884Z,8.53
2019-02-04T11:37:13.095Z,10.40
2019-02-04T11:40:03.574Z,8.63
2019-02-04T11:42:53.554Z,10.20
2019-02-04T11:45:43.918Z,8.50
2019-02-04T11:48:33.962Z,9.78
2019-02-04T11:51:26.210Z,9.88
2019-02-04T11:54:16.328Z,9.58
2019-02-04T11:57:06.674Z,9.10
2019-02-04T11:59:56.577Z,10.05
2019-02-04T12:02:46.472Z,10.00
2019-02-04T12:05:37.894Z,10.10
2019-02-04T12:08:27.544Z,10.45
2019-02-04T12:11:19.536Z,8.75
2019-02-04T12:14:09.359Z,8.48
2019-02-04T12:16:59.485Z,10.05
2019-02-04T12:19:49.234Z,9.80
2019-02-04T12:22:39.134Z,9.78
2019-02-04T12:25:29.583Z,9.40
2019-02-04T12:28:19.952Z,10.48
2019-02-04T12:31:09.649Z,8.63
2019-02-04T12:33:59.881Z,9.15
2019-02-04T12:36:49.875Z,9.00
2019-02-04T12:39:39.875Z,10.50
2019-02-04T12:42:29.951Z,9.08
2019-02-04T12:45:26.043Z,9.15
2019-02-04T12:48:17.459Z,9.90
2019-02-04T12:51:07.863Z,8.88
2019-02-04T12:53:58.010Z,10.43
2019-02-04T12:56:48.032Z,10.20
2019-02-04T12:59:38.071Z,9.38
2019-02-04T13:02:28.362Z,8.65
2019-02-04T13:05:24.242Z,8.63
2019-02-04T13:08:14.688Z,8.75
2019-02-04T13:11:06.714Z,9.43
2019-02-04T13:13:57.105Z,8.30
2019-02-04T13:16:50.335Z,8.43
2019-02-04T13:19:40.156Z,10.93
2019-02-04T13:22:30.239Z,10.15
2019-02-04T13:25:23.372Z,9.53
2019-02-04T13:28:22.258Z,10.43
2019-02-04T13:31:12.172Z,9.90
2019-02-04T13:34:02.311Z,10.68
2019-02-04T13:36:51.672Z,10.72
2019-02-04T13:39:41.842Z,9.35
2019-02-04T13:42:31.663Z,9.23
2019-02-04T13:45:21.725Z,10.40
2019-02-04T13:48:11.942Z,9.98
2019-02-04T13:51:01.864Z,9.93
2019-02-04T13:53:51.814Z,9.90
2019-02-04T13:56:41.930Z,9.35
2019-02-04T13:59:32.162Z,10.10
2019-02-04T14:02:22.821Z,8.00
2019-02-04T14:05:13.242Z,8.88
2019-02-04T14:08:06.151Z,8.68
2019-02-04T14:10:56.705Z,8.68
2019-02-04T14:13:49.090Z,8.73
2019-02-04T14:16:39.460Z,8.65
2019-02-04T14:19:29.446Z,8.88
2019-02-04T14:22:18.925Z,11.65
2019-02-04T14:25:09.472Z,8.83
2019-02-04T14:27:59.433Z,8.93
2019-02-04T14:30:49.874Z,10.05
2019-02-04T14:33:40.183Z,11.60
2019-02-04T14:36:30.690Z,12.10
2019-02-04T14:39:20.594Z,12.47
2019-02-04T14:42:14.618Z,9.80
2019-02-04T14:45:18.416Z,10.30
2019-02-04T14:48:52.586Z,7.45
2019-02-04T14:52:25.274Z,8.50
2019-02-04T14:55:35.027Z,7.55
2019-02-04T14:58:53.450Z,7.72
2019-02-04T15:02:08.315Z,6.15
2019-02-04T15:05:12.432Z,6.70
2019-02-04T15:08:38.714Z,6.75
2019-02-04T15:12:09.591Z,7.12
2019-02-04T15:15:53.131Z,6.45
2019-02-04T15:19:38.723Z,4.40
2019-02-04T15:22:48.883Z,5.83
2019-02-04T15:25:59.155Z,7.92
2019-02-04T15:29:12.894Z,7.42
2019-02-04T15:33:11.788Z,8.75
2019-02-04T15:36:57.162Z,5.60
2019-02-04T15:40:22.222Z,6.03
2019-02-04T15:43:50.045Z,4.95
2019-02-04T15:47:06.629Z,6.37
2019-02-04T15:50:46.400Z,5.28
2019-02-04T15:53:35.796Z,5.80
2019-02-04T15:56:25.742Z,5.40
2019-02-04T15:59:15.514Z,6.65
2019-02-04T16:02:05.234Z,5.55
2019-02-04T16:04:55.112Z,5.30
2019-02-04T16:07:45.278Z,5.50
2019-02-04T16:10:35.444Z,10.90
2019-02-04T16:13:25.396Z,7.17
2019-02-04T16:16:15.374Z,6.62
2019-02-04T16:19:04.926Z,6.10
2019-02-04T16:21:54.801Z,6.55
2019-02-04T16:24:44.352Z,5.45
2019-02-04T16:27:34.657Z,5.40
2019-02-04T16:30:24.332Z,6.42
2019-02-04T16:33:14.653Z,6.35
2019-02-04T16:36:04.311Z,6.22
2019-02-04T16:38:53.997Z,5.33
2019-02-04T16:41:43.885Z,5.75
2019-02-04T16:44:34.188Z,6.40
2019-02-04T16:47:23.935Z,5.53
2019-02-04T16:50:17.074Z,6.12
2019-02-04T16:53:10.686Z,5.35
2019-02-04T16:55:58.447Z,8.10
2019-02-04T16:58:48.331Z,7.08
2019-02-04T17:01:38.263Z,6.15
2019-02-04T17:04:28.155Z,7.60
2019-02-04T17:07:17.861Z,6.37
2019-02-04T17:10:10.782Z,6.67
2019-02-04T17:13:00.873Z,6.30
2019-02-04T17:15:51.685Z,5.80
2019-02-04T17:18:42.286Z,7.60
2019-02-04T17:21:33.223Z,7.83
2019-02-04T17:24:22.925Z,7.17
2019-02-04T17:27:13.058Z,6.00
2019-02-04T17:30:02.833Z,6.83
2019-02-04T17:32:53.195Z,7.12
2019-02-04T17:35:43.032Z,6.70
2019-02-04T17:38:33.062Z,8.13
2019-02-04T17:41:22.662Z,8.20
2019-02-04T17:44:12.654Z,8.53
2019-02-04T17:47:02.772Z,7.35
2019-02-04T17:49:52.710Z,10.60
2019-02-04T17:52:43.868Z,8.63
2019-02-04T17:55:34.108Z,9.13
2019-02-04T17:58:24.101Z,7.72
2019-02-04T18:01:15.215Z,6.80
2019-02-04T18:04:05.604Z,7.53
2019-02-04T18:06:55.846Z,7.12
2019-02-04T18:09:46.517Z,9.08
2019-02-04T18:12:36.752Z,8.10
2019-02-04T18:15:27.488Z,8.60
2019-02-04T18:18:17.715Z,7.47
2019-02-04T18:21:07.717Z,7.70
2019-02-04T18:23:57.431Z,7.72
2019-02-04T18:26:47.465Z,9.18
2019-02-04T18:29:37.297Z,8.38
2019-02-04T18:32:27.422Z,8.75
2019-02-04T18:35:17.494Z,8.25
2019-02-04T18:38:07.035Z,8.43
2019-02-04T18:40:56.964Z,7.37
2019-02-04T18:43:46.737Z,9.95
2019-02-04T18:46:36.895Z,9.35
2019-02-04T18:49:26.812Z,9.00
2019-02-04T18:52:16.596Z,9.80
2019-02-04T18:55:07.334Z,8.45
2019-02-04T18:57:58.147Z,8.38
2019-02-04T19:00:48.345Z,8.18
2019-02-04T19:03:38.475Z,8.90
2019-02-04T19:06:28.514Z,8.48
2019-02-04T19:09:18.381Z,8.60
2019-02-04T19:12:08.742Z,7.85
2019-02-04T19:14:58.934Z,7.40
2019-02-04T19:17:56.077Z,6.53
2019-02-04T19:20:46.128Z,8.75
2019-02-04T19:23:36.134Z,9.05
2019-02-04T19:26:26.512Z,8.75
2019-02-04T19:29:16.334Z,7.20
2019-02-04T19:32:06.751Z,9.00
2019-02-04T19:34:56.375Z,8.88
2019-02-04T19:37:46.542Z,9.23
2019-02-04T19:40:36.534Z,7.70
2019-02-04T19:43:26.611Z,8.90
2019-02-04T19:46:16.405Z,7.90
2019-02-04T19:49:06.285Z,8.45
2019-02-04T19:51:56.791Z,7.90
2019-02-04T19:54:47.190Z,9.83
2019-02-04T19:57:37.404Z,9.30
2019-02-04T20:00:27.551Z,7.85
2019-02-04T20:03:17.775Z,7.25
2019-02-04T20:06:08.525Z,8.00
2019-02-04T20:08:58.938Z,9.55
2019-02-04T20:11:48.654Z,9.75
2019-02-04T20:14:39.449Z,10.50
2019-02-04T20:17:29.843Z,11.38
2019-02-04T20:20:20.811Z,10.00
2019-02-04T20:23:11.832Z,9.48
2019-02-04T20:26:02.417Z,8.80
2019-02-04T20:28:52.322Z,11.90
2019-02-04T20:31:41.882Z,12.35
2019-02-04T20:34:31.684Z,9.80
2019-02-04T20:37:21.446Z,11.15
2019-02-04T20:40:13.072Z,13.60
2019-02-04T20:43:03.073Z,12.82
2019-02-04T20:45:52.712Z,14.70
2019-02-04T20:48:42.613Z,13.03
2019-02-04T20:51:32.495Z,14.25
2019-02-04T20:54:22.161Z,8.40
2019-02-04T20:57:12.765Z,12.60
2019-02-04T21:00:02.533Z,14.10
2019-02-04T21:02:53.863Z,14.87
2019-02-04T21:05:44.096Z,16.07
2019-02-04T21:08:33.974Z,14.80
2019-02-04T21:11:23.975Z,15.25
2019-02-04T21:14:13.766Z,11.43
2019-02-04T21:17:04.880Z,16.85
2019-02-04T21:19:54.914Z,18.60
2019-02-04T21:22:44.689Z,14.55
2019-02-04T21:25:35.048Z,16.17
2019-02-04T21:28:25.182Z,17.20
2019-02-04T21:31:15.194Z,14.23
2019-02-04T21:34:05.022Z,18.77
2019-02-04T21:36:54.575Z,15.35
2019-02-04T21:39:44.965Z,16.02
2019-02-04T21:42:34.785Z,18.45
2019-02-04T21:45:25.162Z,18.23
2019-02-04T21:48:15.113Z,18.20
2019-02-04T21:51:05.239Z,17.77
2019-02-04T21:53:55.090Z,17.52
2019-02-04T21:56:44.733Z,16.73
2019-02-04T21:59:34.552Z,18.10
2019-02-04T22:02:24.672Z,11.30
2019-02-04T22:05:16.605Z,16.80
2019-02-04T22:08:07.142Z,19.25
2019-02-04T22:10:56.753Z,15.48
2019-02-04T22:13:46.323Z,16.25
2019-02-04T22:16:36.324Z,17.48
2019-02-04T22:19:26.709Z,14.23
2019-02-04T22:22:16.486Z,19.65
2019-02-04T22:25:07.092Z,18.60
2019-02-04T22:27:57.693Z,17.98
2019-02-04T22:30:47.241Z,15.93
2019-02-04T22:33:36.632Z,18.62
2019-02-04T22:36:26.613Z,18.37
2019-02-04T22:39:16.314Z,17.75
2019-02-04T22:42:06.486Z,17.40
2019-02-04T22:44:55.995Z,17.85
2019-02-04T22:47:45.821Z,18.32
2019-02-04T22:50:35.662Z,18.02
2019-02-04T22:53:25.714Z,19.37
2019-02-04T22:56:15.725Z,17.55
2019-02-04T22:59:05.881Z,18.27
2019-02-04T23:01:58.002Z,16.05
2019-02-04T23:04:48.435Z,18.02
2019-02-04T23:07:38.306Z,16.42
2019-02-04T23:10:28.383Z,15.90
2019-02-04T23:13:18.149Z,17.70
2019-02-04T23:16:08.140Z,17.07
2019-02-04T23:19:00.072Z,16.80
2019-02-04T23:21:50.073Z,15.13
2019-02-04T23:24:39.915Z,19.42
2019-02-04T23:27:29.642Z,17.75
2019-02-04T23:30:19.785Z,17.70
2019-02-04T23:33:09.900Z,17.85
2019-02-04T23:36:00.070Z,19.17
2019-02-04T23:38:51.082Z,17.87
2019-02-04T23:41:41.507Z,19.92
2019-02-04T23:44:31.515Z,17.42
2019-02-04T23:47:21.342Z,18.60
2019-02-04T23:50:11.675Z,19.62
2019-02-04T23:53:01.525Z,16.85
2019-02-04T23:55:54.696Z,20.27
2019-02-04T23:58:43.225Z,18.90
